Time;durP1;ratioP1;P1;durP2;ratioP2;P2;SDS_P1;SDS_P2;PMS_P1;PMS_P2;Temp;Humidity;BMP_temperature;BMP_pressure;BME280_temperature;BME280_humidity;BME280_pressure;Samples;Min_cycle;Max_cycle;Signal;HPM_P1;HPM_P2
2023/06/09 00:01:09;;;;;;;12.27;11.17;;;;;;;11.99;100.00;96068.03;7409254;19;20352;-78
2023/06/09 00:03:37;;;;;;;12.67;11.57;;;;;;;12.03;100.00;96111.31;7412106;19;20385;-79
2023/06/09 00:06:05;;;;;;;11.57;10.43;;;;;;;12.12;100.00;96114.53;7409614;19;20362;-78
2023/06/09 00:08:32;;;;;;;11.27;10.37;;;;;;;12.26;100.00;96121.31;7411176;19;20367;-78
2023/06/09 00:10:59;;;;;;;12.20;11.00;;;;;;;12.15;100.00;96089.25;7412214;19;20397;-79
2023/06/09 00:13:26;;;;;;;11.30;10.27;;;;;;;12.61;100.00;96145.28;7412195;19;20409;-79
2023/06/09 00:15:53;;;;;;;10.50;9.60;;;;;;;12.07;100.00;96063.69;7410061;19;20388;-79
2023/06/09 00:18:24;;;;;;;10.90;9.80;;;;;;;12.41;100.00;96113.34;7408253;19;20372;-78
2023/06/09 00:20:51;;;;;;;12.30;11.00;;;;;;;12.17;100.00;96110.13;7409876;19;20412;-78
2023/06/09 00:23:19;;;;;;;12.77;11.60;;;;;;;12.07;100.00;96101.56;7406718;19;20380;-78
2023/06/09 00:25:46;;;;;;;11.93;10.83;;;;;;;12.27;100.00;96107.72;7409542;19;20404;-78
2023/06/09 00:28:13;;;;;;;12.00;11.00;;;;;;;11.98;100.00;96111.53;7409113;19;20376;-78
2023/06/09 00:30:40;;;;;;;13.27;11.97;;;;;;;11.83;100.00;96113.06;7409226;19;20351;-78
2023/06/09 00:33:07;;;;;;;12.23;11.23;;;;;;;11.81;100.00;96086.16;7407663;19;20414;-78
2023/06/09 00:35:34;;;;;;;12.03;10.93;;;;;;;12.06;100.00;96096.59;7411481;19;20899;-78
2023/06/09 00:38:01;;;;;;;11.40;10.50;;;;;;;12.22;100.00;96118.59;7407854;19;20387;-78
2023/06/09 00:40:28;;;;;;;13.10;12.00;;;;;;;12.13;100.00;96102.06;7409883;19;20396;-78
2023/06/09 00:42:59;;;;;;;10.63;9.87;;;;;;;12.09;100.00;96103.88;7406397;19;20404;-78
2023/06/09 00:45:26;;;;;;;11.37;10.30;;;;;;;11.95;100.00;96103.50;7409945;19;20378;-78
2023/06/09 00:47:54;;;;;;;10.47;9.67;;;;;;;11.82;100.00;96121.34;7408839;19;20491;-79
2023/06/09 00:50:22;;;;;;;14.43;11.07;;;;;;;11.33;100.00;96042.09;7412009;19;20364;-79
2023/06/09 00:52:51;;;;;;;9.97;9.07;;;;;;;11.69;100.00;96070.28;7408382;19;20382;-78
2023/06/09 00:55:19;;;;;;;10.97;9.97;;;;;;;11.65;100.00;96117.09;7411251;19;20472;-78
2023/06/09 00:57:47;;;;;;;12.77;10.80;;;;;;;11.24;100.00;96066.06;7422803;19;20431;-78
2023/06/09 01:00:16;;;;;;;12.03;11.03;;;;;;;11.41;100.00;96072.19;7424846;19;20391;-78
2023/06/09 01:02:43;;;;;;;11.60;10.70;;;;;;;11.19;100.00;96026.59;7425041;19;20360;-78
2023/06/09 01:05:12;;;;;;;11.57;10.63;;;;;;;11.88;100.00;96113.91;7425974;19;20796;-78
2023/06/09 01:07:50;;;;;;;15.03;11.00;;;;;;;12.05;100.00;96124.22;7415006;19;20382;-78
2023/06/09 01:10:33;;;;;;;11.40;10.40;;;;;;;12.13;100.00;96120.63;7417941;19;20380;-78
2023/06/09 01:13:17;;;;;;;14.93;12.20;;;;;;;12.10;100.00;96116.00;7404691;19;20487;-78
2023/06/09 01:15:49;;;;;;;11.20;10.10;;;;;;;11.94;100.00;96086.06;7402729;19;20395;-78
2023/06/09 01:18:17;;;;;;;11.40;10.40;;;;;;;11.90;100.00;96080.69;7403582;19;20912;-78
2023/06/09 01:20:57;;;;;;;11.93;10.93;;;;;;;12.00;100.00;96116.50;7402736;19;20385;-78
2023/06/09 01:23:52;;;;;;;11.63;10.53;;;;;;;12.04;100.00;96114.72;7399606;19;20420;-78
2023/06/09 01:26:21;;;;;;;12.00;11.00;;;;;;;11.97;100.00;96102.06;7402664;19;20944;-78
2023/06/09 01:28:51;;;;;;;12.77;11.57;;;;;;;11.88;100.00;96092.72;7400888;19;20398;-78
2023/06/09 01:31:18;;;;;;;10.80;9.80;;;;;;;11.89;100.00;96062.50;7402304;19;20384;-78
2023/06/09 01:33:47;;;;;;;11.77;10.63;;;;;;;12.14;100.00;96101.72;7399954;19;20433;-79
2023/06/09 01:36:15;;;;;;;11.20;10.13;;;;;;;11.77;100.00;96071.25;7402098;19;20361;-78
2023/06/09 01:38:43;;;;;;;11.47;10.53;;;;;;;11.16;100.00;96040.50;7402075;19;20408;-79
2023/06/09 01:41:10;;;;;;;11.63;9.60;;;;;;;11.37;100.00;96058.84;7403374;19;20385;-79
2023/06/09 01:43:37;;;;;;;11.83;10.63;;;;;;;11.10;100.00;96001.41;7400750;19;20412;-79
2023/06/09 01:46:04;;;;;;;11.93;10.93;;;;;;;11.83;100.00;96070.69;7411505;19;20408;-79
2023/06/09 01:48:46;;;;;;;12.67;11.57;;;;;;;11.59;100.00;96088.53;7407094;19;20892;-79
2023/06/09 01:51:48;;;;;;;13.40;12.10;;;;;;;11.40;100.00;96071.41;7401124;19;20905;-78
2023/06/09 01:54:23;;;;;;;11.80;10.77;;;;;;;11.67;100.00;96075.16;7399619;19;20435;-79
2023/06/09 01:56:58;;;;;;;12.67;11.60;;;;;;;11.90;100.00;96095.81;7399415;19;20912;-78
2023/06/09 01:59:30;;;;;;;12.03;10.83;;;;;;;12.00;100.00;96084.69;7398873;19;20379;-78
2023/06/09 02:02:01;;;;;;;12.43;11.43;;;;;;;11.46;100.00;96000.44;7401330;19;20903;-78
2023/06/09 02:04:30;;;;;;;11.70;10.70;;;;;;;11.73;100.00;96057.88;7398126;19;20429;-78
2023/06/09 02:06:58;;;;;;;11.17;10.37;;;;;;;11.69;100.00;96064.22;7401395;19;20385;-78
2023/06/09 02:09:25;;;;;;;11.20;10.20;;;;;;;11.70;100.00;96061.22;7399934;19;20384;-78
2023/06/09 02:11:52;;;;;;;12.30;11.20;;;;;;;11.71;100.00;96051.41;7401089;19;20381;-78
2023/06/09 02:14:20;;;;;;;13.13;11.57;;;;;;;11.98;100.00;96076.31;7397780;19;20571;-78
2023/06/09 02:16:47;;;;;;;13.20;10.00;;;;;;;11.81;100.00;96062.31;7397215;19;20401;-79
2023/06/09 02:19:16;;;;;;;10.87;9.97;;;;;;;11.87;100.00;96068.09;7399663;19;20379;-79
2023/06/09 02:21:43;;;;;;;12.07;11.07;;;;;;;12.20;100.00;96099.59;7400490;19;20379;-78
2023/06/09 02:24:10;;;;;;;10.40;9.50;;;;;;;12.04;100.00;96053.78;7399837;19;20412;-79
2023/06/09 02:26:37;;;;;;;10.70;9.70;;;;;;;11.89;100.00;96054.56;7398355;19;20405;-78
2023/06/09 02:29:03;;;;;;;10.77;9.97;;;;;;;12.08;100.00;96094.38;7399637;19;20385;-78
2023/06/09 02:31:31;;;;;;;10.83;10.03;;;;;;;11.86;100.00;96037.44;7397656;19;20376;-78
2023/06/09 02:33:59;;;;;;;10.73;9.73;;;;;;;11.98;100.00;96047.94;7397966;19;20408;-78
2023/06/09 02:36:27;;;;;;;11.43;10.53;;;;;;;12.14;100.00;96071.81;7397460;19;20412;-78
2023/06/09 02:38:54;;;;;;;12.50;11.30;;;;;;;12.28;100.00;96064.19;7399538;19;20376;-78
2023/06/09 02:41:21;;;;;;;11.83;10.83;;;;;;;12.22;100.00;96073.53;7397247;19;20392;-78
2023/06/09 02:43:50;;;;;;;11.33;10.53;;;;;;;12.22;100.00;96062.91;7397413;19;20428;-78
2023/06/09 02:46:17;;;;;;;10.90;9.87;;;;;;;11.82;100.00;96024.09;7397727;19;20732;-78
2023/06/09 02:48:44;;;;;;;11.50;10.50;;;;;;;12.08;100.00;96078.47;7399136;19;20873;-78
2023/06/09 02:51:12;;;;;;;11.23;10.20;;;;;;;11.89;100.00;96060.63;7397462;19;20404;-78
2023/06/09 02:53:40;;;;;;;11.73;10.70;;;;;;;11.80;100.00;96071.34;7398056;19;20428;-78
2023/06/09 02:56:07;;;;;;;11.40;10.33;;;;;;;11.97;100.00;96067.63;7397063;19;20372;-78
2023/06/09 02:58:42;;;;;;;10.90;10.00;;;;;;;12.09;100.00;96077.38;7398702;19;20363;-78
2023/06/09 03:01:11;;;;;;;12.10;11.10;;;;;;;11.93;100.00;96060.69;7401993;19;20373;-78
2023/06/09 03:03:39;;;;;;;10.57;9.67;;;;;;;11.91;100.00;96047.78;7432571;19;20460;-78
2023/06/09 03:06:07;;;;;;;11.30;10.17;;;;;;;12.12;100.00;96061.53;7432235;19;20408;-78
2023/06/09 03:08:35;;;;;;;10.13;9.30;;;;;;;12.13;100.00;96071.03;7429010;19;20399;-78
2023/06/09 03:11:02;;;;;;;12.07;10.83;;;;;;;12.44;100.00;96090.72;7401330;19;20380;-79
2023/06/09 03:13:30;;;;;;;11.80;10.77;;;;;;;12.59;100.00;96105.06;7395822;19;20982;-78
2023/06/09 03:15:58;;;;;;;10.33;9.53;;;;;;;12.43;100.00;96079.34;7398744;19;20380;-78
2023/06/09 03:18:27;;;;;;;11.30;10.40;;;;;;;12.32;100.00;96104.81;7394372;19;20916;-78
2023/06/09 03:20:55;;;;;;;12.10;11.13;;;;;;;11.94;100.00;96065.66;7398016;19;20416;-78
2023/06/09 03:23:22;;;;;;;11.87;10.70;;;;;;;11.98;100.00;96053.25;7395748;19;20433;-78
2023/06/09 03:25:52;;;;;;;11.33;10.33;;;;;;;12.11;100.00;96075.91;7398266;19;20901;-78
2023/06/09 03:28:23;;;;;;;12.00;11.07;;;;;;;12.05;100.00;96061.38;7396943;19;20408;-78
2023/06/09 03:30:50;;;;;;;11.03;10.13;;;;;;;12.26;100.00;96095.56;7398828;19;20384;-78
2023/06/09 03:33:18;;;;;;;10.50;9.70;;;;;;;12.12;100.00;96069.50;7396333;19;20399;-78
2023/06/09 03:35:48;;;;;;;11.23;10.30;;;;;;;12.27;100.00;96085.75;7398266;19;20364;-78
2023/06/09 03:38:16;;;;;;;12.73;11.50;;;;;;;11.86;100.00;96069.22;7395333;19;20405;-78
2023/06/09 03:40:44;;;;;;;10.37;9.50;;;;;;;11.52;100.00;96036.94;7397443;19;20379;-78
2023/06/09 03:43:11;;;;;;;12.07;10.87;;;;;;;11.95;100.00;96082.31;7395378;19;20434;-78
2023/06/09 03:45:39;;;;;;;10.67;9.87;;;;;;;11.87;100.00;96064.69;7397925;19;20403;-78
2023/06/09 03:48:08;;;;;;;10.70;9.87;;;;;;;12.28;100.00;96111.13;7396090;19;20470;-78
2023/06/09 03:50:35;;;;;;;11.00;10.10;;;;;;;12.11;100.00;96091.03;7397830;19;20410;-78
2023/06/09 03:53:02;;;;;;;10.87;9.97;;;;;;;12.12;100.00;96093.34;7395853;19;20436;-78
2023/06/09 03:55:31;;;;;;;11.20;10.13;;;;;;;12.13;100.00;96063.06;7400011;19;20361;-79
2023/06/09 03:57:59;;;;;;;11.20;10.07;;;;;;;12.19;100.00;96071.56;7395185;19;20896;-79
2023/06/09 04:00:26;;;;;;;12.40;11.40;;;;;;;12.47;100.00;96121.06;7398257;19;20399;-78
2023/06/09 04:02:57;;;;;;;11.07;10.27;;;;;;;12.29;100.00;96094.91;7395705;19;20381;-78
2023/06/09 04:05:25;;;;;;;11.20;10.40;;;;;;;12.61;100.00;96102.84;7397542;19;20412;-79
2023/06/09 04:07:53;;;;;;;11.00;10.10;;;;;;;12.55;100.00;96065.19;7397514;19;20939;-78
2023/06/09 04:10:20;;;;;;;10.10;9.17;;;;;;;12.65;100.00;96090.41;7398010;19;20392;-79
2023/06/09 04:12:48;;;;;;;11.47;10.67;;;;;;;12.71;100.00;96102.31;7396129;19;20384;-79
2023/06/09 04:15:17;;;;;;;10.53;9.73;;;;;;;12.86;100.00;96112.13;7396012;19;20365;-79
2023/06/09 04:17:46;;;;;;;9.20;8.50;;;;;;;12.84;100.00;96090.47;7396437;19;20380;-79
2023/06/09 04:20:16;;;;;;;9.27;8.50;;;;;;;12.95;100.00;96096.00;7395605;19;20392;-78
2023/06/09 04:22:51;;;;;;;9.50;8.80;;;;;;;13.10;100.00;96113.00;7396891;19;20384;-78
2023/06/09 04:25:25;;;;;;;13.03;8.90;;;;;;;13.17;100.00;96121.13;7396587;19;20388;-78
2023/06/09 04:28:00;;;;;;;9.47;8.10;;;;;;;13.24;100.00;96114.09;7397029;19;20380;-79
2023/06/09 04:30:29;;;;;;;9.83;9.17;;;;;;;12.78;100.00;96107.00;7395552;19;20395;-78
2023/06/09 04:32:58;;;;;;;9.80;8.90;;;;;;;12.92;100.00;96128.53;7393812;19;20364;-78
2023/06/09 04:35:25;;;;;;;10.77;9.90;;;;;;;13.18;100.00;96130.63;7397091;19;20718;-78
2023/06/09 04:37:52;;;;;;;10.80;9.90;;;;;;;13.49;100.00;96122.59;7393024;19;20932;-78
2023/06/09 04:40:23;;;;;;;8.70;8.10;;;;;;;13.66;100.00;96144.53;7396079;19;20921;-78
2023/06/09 04:42:53;;;;;;;9.67;8.53;;;;;;;13.61;100.00;96100.41;7401682;19;20397;-78
2023/06/09 04:45:25;;;;;;;10.47;9.73;;;;;;;13.62;100.00;96107.25;7403890;19;20376;-78
2023/06/09 04:47:53;;;;;;;9.00;8.30;;;;;;;13.70;100.00;96095.63;7402573;19;20400;-78
2023/06/09 04:50:21;;;;;;;8.97;8.17;;;;;;;13.90;100.00;96107.03;7404084;19;20431;-78
2023/06/09 04:52:48;;;;;;;11.27;9.97;;;;;;;13.85;100.00;96100.09;7402085;19;20397;-78
2023/06/09 04:55:16;;;;;;;9.87;9.07;;;;;;;14.16;100.00;96103.69;7403799;19;20377;-78
2023/06/09 04:57:45;;;;;;;10.53;9.43;;;;;;;14.46;100.00;96122.44;7401315;19;20974;-79
2023/06/09 05:00:16;;;;;;;16.73;9.10;;;;;;;14.43;100.00;96115.16;7403322;19;20385;-78
2023/06/09 05:02:45;;;;;;;11.20;10.27;;;;;;;14.61;100.00;96115.44;7402796;19;20376;-78
2023/06/09 05:05:13;;;;;;;9.10;8.40;;;;;;;14.74;100.00;96130.84;7404645;19;20384;-79
2023/06/09 05:07:41;;;;;;;10.30;9.40;;;;;;;14.60;100.00;96092.63;7404840;19;20968;-78
2023/06/09 05:10:10;;;;;;;9.70;8.90;;;;;;;14.86;100.00;96124.56;7425191;19;20415;-79
2023/06/09 05:12:38;;;;;;;8.87;7.97;;;;;;;15.25;100.00;96145.66;7412343;19;20372;-79
2023/06/09 05:15:06;;;;;;;10.13;9.23;;;;;;;15.00;100.00;96118.69;7403817;19;20376;-78
2023/06/09 05:17:34;;;;;;;9.93;9.03;;;;;;;14.83;100.00;96103.22;7401984;19;20396;-79
2023/06/09 05:20:02;;;;;;;10.60;9.70;;;;;;;15.12;100.00;96109.72;7400696;19;20389;-78
2023/06/09 05:22:29;;;;;;;9.50;8.70;;;;;;;15.44;100.00;96131.41;7401855;19;20385;-78
2023/06/09 05:24:56;;;;;;;11.67;8.80;;;;;;;15.62;100.00;96138.53;7397360;19;20441;-78
2023/06/09 05:27:22;;;;;;;9.13;8.33;;;;;;;15.51;100.00;96118.97;7401310;19;20361;-78
2023/06/09 05:29:50;;;;;;;10.60;9.60;;;;;;;15.68;100.00;96120.31;7400152;19;20760;-78
2023/06/09 05:32:18;;;;;;;9.57;8.77;;;;;;;16.11;100.00;96152.78;7401615;19;21071;-78
2023/06/09 05:34:45;;;;;;;9.20;8.50;;;;;;;16.00;100.00;96149.97;7397882;19;20440;-79
2023/06/09 05:37:15;;;;;;;9.27;8.57;;;;;;;15.91;100.00;96122.88;7401112;19;20381;-78
2023/06/09 05:39:42;;;;;;;9.33;8.40;;;;;;;15.77;100.00;96115.47;7400338;19;20365;-79
2023/06/09 05:42:09;;;;;;;9.50;8.70;;;;;;;15.78;100.00;96127.69;7401964;19;20348;-79
2023/06/09 05:44:36;;;;;;;9.10;8.40;;;;;;;15.77;100.00;96128.03;7398067;19;20431;-78
2023/06/09 05:47:04;;;;;;;9.40;8.67;;;;;;;16.15;100.00;96151.66;7401752;19;20365;-79
2023/06/09 05:49:32;;;;;;;9.20;8.43;;;;;;;16.19;100.00;96125.03;7399552;19;20384;-79
2023/06/09 05:51:59;;;;;;;9.30;8.60;;;;;;;16.37;100.00;96141.19;7401152;19;20388;-78
2023/06/09 05:54:26;;;;;;;8.57;7.83;;;;;;;16.61;100.00;96156.66;7398192;19;20460;-78
2023/06/09 05:56:54;;;;;;;9.80;9.00;;;;;;;16.63;100.00;96141.03;7402616;19;20872;-79
2023/06/09 05:59:22;;;;;;;9.27;8.40;;;;;;;16.84;100.00;96140.47;7397914;19;20405;-79
2023/06/09 06:01:50;;;;;;;9.93;9.20;;;;;;;17.14;100.00;96148.31;7402856;19;20742;-79
2023/06/09 06:04:18;;;;;;;9.40;8.50;;;;;;;17.36;100.00;96155.31;7398438;19;20424;-79
2023/06/09 06:06:45;;;;;;;9.07;7.70;;;;;;;17.00;100.00;96084.88;7401202;19;20389;-79
2023/06/09 06:09:12;;;;;;;9.53;8.67;;;;;;;17.83;100.00;96142.16;7401485;19;20404;-79
2023/06/09 06:11:39;;;;;;;9.30;8.60;;;;;;;18.06;100.00;96131.91;7402743;19;20416;-79
2023/06/09 06:14:06;;;;;;;9.13;8.40;;;;;;;18.27;100.00;96155.25;7396770;19;20944;-79
2023/06/09 06:16:33;;;;;;;8.87;8.00;;;;;;;18.30;100.00;96149.91;7400925;19;20368;-78
2023/06/09 06:19:00;;;;;;;9.20;8.50;;;;;;;18.36;100.00;96134.22;7398209;19;20414;-79
2023/06/09 06:21:27;;;;;;;9.10;8.20;;;;;;;18.71;100.00;96122.03;7401874;19;20452;-79
2023/06/09 06:23:54;;;;;;;10.43;9.40;;;;;;;18.55;100.00;96128.50;7400267;19;20431;-79
2023/06/09 06:26:22;;;;;;;9.33;8.63;;;;;;;18.79;100.00;96155.69;7404179;19;20350;-79
2023/06/09 06:28:50;;;;;;;8.10;7.40;;;;;;;18.91;100.00;96155.31;7400305;19;20391;-79
2023/06/09 06:31:16;;;;;;;8.63;7.97;;;;;;;19.18;100.00;96153.75;7401528;19;20414;-79
2023/06/09 06:33:44;;;;;;;7.50;6.90;;;;;;;19.26;100.00;96154.50;7399249;19;20411;-79
2023/06/09 06:36:11;;;;;;;9.27;8.57;;;;;;;18.75;100.00;96138.88;7403463;19;20347;-79
2023/06/09 06:38:38;;;;;;;7.67;7.07;;;;;;;19.45;100.00;96154.06;7401475;19;20468;-79
2023/06/09 06:41:05;;;;;;;9.27;8.47;;;;;;;19.35;100.00;96136.06;7403072;19;20394;-79
2023/06/09 06:43:32;;;;;;;8.20;7.57;;;;;;;19.74;100.00;96153.97;7400571;19;20377;-79
2023/06/09 06:46:05;;;;;;;8.73;8.03;;;;;;;19.72;100.00;96143.63;7400057;19;20364;-79
2023/06/09 06:48:32;;;;;;;8.63;7.90;;;;;;;19.86;100.00;96160.84;7402065;19;20402;-80
2023/06/09 06:50:59;;;;;;;9.63;8.73;;;;;;;19.45;100.00;96137.19;7400084;19;20721;-80
2023/06/09 06:53:27;;;;;;;8.70;8.10;;;;;;;19.77;100.00;96161.28;7402387;19;20423;-80
2023/06/09 06:55:54;;;;;;;7.90;7.20;;;;;;;20.02;100.00;96156.53;7399810;19;20737;-80
2023/06/09 06:58:21;;;;;;;10.07;9.27;;;;;;;20.00;100.00;96134.69;7400422;19;20381;-80
2023/06/09 07:00:47;;;;;;;8.67;7.97;;;;;;;19.81;100.00;96151.28;7402340;19;20338;-80
2023/06/09 07:03:16;;;;;;;9.00;8.40;;;;;;;20.29;100.00;96178.25;7400921;19;20375;-80
2023/06/09 07:05:43;;;;;;;8.90;8.30;;;;;;;20.34;100.00;96166.34;7398885;19;20902;-80
2023/06/09 07:08:10;;;;;;;9.63;8.73;;;;;;;20.73;100.00;96170.72;7402349;19;21062;-80
2023/06/09 07:10:37;;;;;;;9.60;8.90;;;;;;;20.79;100.00;96169.09;7400704;19;20961;-80
2023/06/09 07:13:05;;;;;;;8.90;8.20;;;;;;;20.86;100.00;96167.13;7402142;19;20455;-80
2023/06/09 07:15:32;;;;;;;9.27;8.47;;;;;;;21.07;100.00;96184.22;7399435;19;20431;-80
2023/06/09 07:17:59;;;;;;;7.97;7.37;;;;;;;21.14;100.00;96170.72;7400828;19;20432;-80
2023/06/09 07:20:26;;;;;;;8.67;7.87;;;;;;;21.34;100.00;96174.38;7401543;19;20403;-80
2023/06/09 07:22:53;;;;;;;8.90;8.20;;;;;;;21.71;100.00;96170.16;7402285;19;20355;-80
2023/06/09 07:25:20;;;;;;;8.10;7.47;;;;;;;21.60;100.00;96180.28;7401687;19;20398;-80
2023/06/09 07:27:47;;;;;;;9.00;8.30;;;;;;;21.47;100.00;96182.72;7403284;19;20363;-80
2023/06/09 07:30:14;;;;;;;9.43;8.57;;;;;;;21.74;100.00;96182.81;7403966;19;20369;-80
2023/06/09 07:32:41;;;;;;;9.00;8.30;;;;;;;22.13;100.00;96182.34;7403372;19;20373;-80
2023/06/09 07:35:12;;;;;;;8.60;8.00;;;;;;;21.92;100.00;96169.16;7399465;19;20413;-80
2023/06/09 07:37:42;;;;;;;8.77;8.10;;;;;;;22.08;100.00;96180.13;7402679;19;20375;-79
2023/06/09 07:40:09;;;;;;;9.40;8.60;;;;;;;21.83;100.00;96177.72;7403645;19;20387;-80
2023/06/09 07:42:46;;;;;;;9.87;9.17;;;;;;;21.79;100.00;96183.13;7401521;19;20347;-80
2023/06/09 07:45:13;;;;;;;9.90;8.97;;;;;;;21.54;100.00;96145.75;7401158;19;20346;-79
2023/06/09 07:47:40;;;;;;;9.33;8.43;;;;;;;21.95;100.00;96147.56;7400643;19;20418;-79
2023/06/09 07:50:08;;;;;;;7.70;7.20;;;;;;;22.17;100.00;96153.47;7402183;19;20947;-80
2023/06/09 07:52:39;;;;;;;9.77;8.97;;;;;;;22.37;100.00;96154.31;7401372;19;20464;-80
2023/06/09 07:55:07;;;;;;;10.13;9.33;;;;;;;22.39;100.00;96160.06;7403990;19;20368;-80
2023/06/09 07:57:41;;;;;;;9.60;8.90;;;;;;;22.62;100.00;96180.91;7398933;19;20912;-80
2023/06/09 08:00:28;;;;;;;10.10;9.33;;;;;;;22.39;100.00;96173.53;7406240;19;20917;-80
2023/06/09 08:03:02;;;;;;;8.83;8.03;;;;;;;22.92;100.00;96173.91;7407743;19;20881;-80
2023/06/09 08:05:30;;;;;;;9.03;8.30;;;;;;;22.91;100.00;96180.47;7406994;19;20382;-80
2023/06/09 08:08:01;;;;;;;9.20;8.50;;;;;;;23.02;100.00;96146.00;7409002;19;20907;-79
2023/06/09 08:10:28;;;;;;;9.67;8.73;;;;;;;22.98;99.28;96173.03;7408341;19;20759;-79
2023/06/09 08:12:55;;;;;;;9.70;8.90;;;;;;;22.99;98.91;96158.38;7407409;19;20380;-79
2023/06/09 08:15:22;;;;;;;9.87;9.00;;;;;;;23.06;99.80;96168.28;7410132;19;20927;-79
2023/06/09 08:17:49;;;;;;;9.90;9.00;;;;;;;23.27;100.00;96175.25;7419099;19;20375;-79
2023/06/09 08:20:16;;;;;;;9.30;8.60;;;;;;;23.28;98.16;96188.31;7415690;19;20935;-79
2023/06/09 08:22:43;;;;;;;9.10;8.50;;;;;;;23.09;96.69;96177.47;7416937;19;20404;-79
2023/06/09 08:25:11;;;;;;;9.80;8.90;;;;;;;23.01;97.17;96160.66;7415355;19;20406;-79
2023/06/09 08:27:38;;;;;;;8.60;7.90;;;;;;;23.37;97.41;96149.22;7417885;19;20368;-79
2023/06/09 08:30:07;;;;;;;8.70;7.83;;;;;;;23.50;93.36;96164.38;7415480;19;20397;-79
2023/06/09 08:32:36;;;;;;;9.70;8.90;;;;;;;24.04;94.29;96166.84;7416724;19;20423;-79
2023/06/09 08:35:07;;;;;;;9.80;8.07;;;;;;;23.94;90.16;96162.41;7410600;19;20520;-79
2023/06/09 08:37:36;;;;;;;10.47;9.67;;;;;;;24.23;90.13;96170.69;7413994;19;20351;-79
2023/06/09 08:40:07;;;;;;;8.97;8.20;;;;;;;23.52;91.18;96153.97;7413368;19;20395;-80
2023/06/09 08:42:38;;;;;;;9.73;8.93;;;;;;;24.08;91.81;96164.06;7416732;19;20368;-79
2023/06/09 08:45:05;;;;;;;9.30;8.40;;;;;;;23.68;92.63;96157.94;7413976;19;20915;-79
2023/06/09 08:47:36;;;;;;;8.93;8.33;;;;;;;23.96;87.96;96146.56;7416086;19;20384;-79
2023/06/09 08:50:06;;;;;;;9.13;8.43;;;;;;;24.41;85.00;96148.69;7414454;19;20419;-79
2023/06/09 08:52:34;;;;;;;9.90;8.97;;;;;;;24.62;86.05;96150.13;7414420;19;20353;-79
2023/06/09 08:55:03;;;;;;;9.20;8.50;;;;;;;24.52;85.00;96149.19;7411706;19;20698;-79
2023/06/09 08:57:32;;;;;;;10.07;9.17;;;;;;;24.28;84.50;96118.06;7412563;19;20374;-80
2023/06/09 08:59:59;;;;;;;10.37;9.43;;;;;;;24.50;84.59;96138.06;7410446;19;20406;-79
2023/06/09 09:02:26;;;;;;;9.90;9.20;;;;;;;23.85;86.87;96119.00;7412602;19;20383;-79
2023/06/09 09:04:53;;;;;;;10.40;9.53;;;;;;;24.34;83.14;96128.00;7410933;19;20401;-79
2023/06/09 09:07:21;;;;;;;9.60;8.67;;;;;;;23.86;86.46;96128.63;7412862;19;20385;-79
2023/06/09 09:09:48;;;;;;;9.03;8.43;;;;;;;24.22;85.12;96125.16;7402650;19;20406;-77
2023/06/09 09:12:15;;;;;;;11.27;9.10;;;;;;;23.73;85.67;96123.09;7399835;19;20363;-77
2023/06/09 09:14:43;;;;;;;9.60;8.90;;;;;;;24.35;84.97;96115.25;7399229;19;20409;-78
2023/06/09 09:17:11;;;;;;;8.23;7.73;;;;;;;23.90;81.51;96134.69;7399742;19;20419;-79
2023/06/09 09:19:45;;;;;;;9.00;8.30;;;;;;;24.40;81.00;96120.13;7399797;19;20398;-77
2023/06/09 09:22:12;;;;;;;11.60;9.00;;;;;;;24.39;79.18;96121.31;7400660;19;20390;-77
2023/06/09 09:24:47;;;;;;;9.17;8.30;;;;;;;24.32;82.60;96135.00;7399938;19;20428;-78
2023/06/09 09:27:19;;;;;;;8.33;7.63;;;;;;;23.81;78.95;96127.19;7399492;19;20356;-78
2023/06/09 09:29:46;;;;;;;9.30;8.57;;;;;;;23.58;79.07;96119.16;7399672;19;20389;-78
2023/06/09 09:32:14;;;;;;;8.50;7.80;;;;;;;23.99;80.87;96126.03;7397884;19;20369;-78
2023/06/09 09:34:42;;;;;;;9.80;9.00;;;;;;;24.46;78.14;96123.88;7397376;19;20436;-79
2023/06/09 09:37:10;;;;;;;8.93;8.23;;;;;;;23.93;82.70;96131.19;7396805;19;21009;-78
2023/06/09 09:39:48;;;;;;;9.10;8.30;;;;;;;23.79;82.75;96126.09;7397740;19;20406;-78
2023/06/09 09:42:16;;;;;;;8.67;7.97;;;;;;;23.52;80.17;96131.59;7400695;19;20381;-78
2023/06/09 09:44:50;;;;;;;8.33;7.53;;;;;;;23.44;79.21;96139.06;7397090;19;20386;-77
2023/06/09 09:47:18;;;;;;;8.47;7.87;;;;;;;23.35;77.54;96119.97;7400713;19;20353;-79
2023/06/09 09:50:01;;;;;;;8.53;8.00;;;;;;;23.73;78.01;96141.25;7400987;19;20378;-78
2023/06/09 09:52:29;;;;;;;8.53;7.83;;;;;;;23.05;84.12;96133.63;7399962;19;20361;-78
2023/06/09 09:55:03;;;;;;;8.10;7.50;;;;;;;22.53;90.67;96104.41;7398994;19;20385;-77
2023/06/09 09:57:32;;;;;;;10.50;9.70;;;;;;;22.47;92.06;96123.00;7398429;19;20395;-78
2023/06/09 10:00:00;;;;;;;9.37;8.57;;;;;;;22.35;90.11;96118.94;7398464;19;20367;-78
2023/06/09 10:02:41;;;;;;;10.77;9.93;;;;;;;22.44;89.31;96104.97;7398912;19;20342;-78
2023/06/09 10:05:10;;;;;;;8.83;8.03;;;;;;;22.32;84.09;96113.63;7400836;19;20865;-78
2023/06/09 10:07:40;;;;;;;7.93;7.37;;;;;;;22.58;78.67;96110.13;7398398;19;20369;-78
2023/06/09 10:10:11;;;;;;;8.07;7.47;;;;;;;22.70;75.80;96117.63;7400424;19;20404;-78
2023/06/09 10:12:38;;;;;;;8.70;7.90;;;;;;;22.80;77.38;96104.34;7399201;19;20412;-78
2023/06/09 10:15:08;;;;;;;7.63;7.03;;;;;;;23.07;74.54;96101.59;7400648;19;20371;-78
2023/06/09 10:17:36;;;;;;;7.30;6.70;;;;;;;23.81;72.49;96127.19;7398814;19;20353;-78
2023/06/09 10:20:05;;;;;;;7.60;6.87;;;;;;;24.16;70.75;96114.06;7397421;19;20702;-78
2023/06/09 10:22:33;;;;;;;8.67;7.87;;;;;;;24.47;70.53;96119.97;7398381;19;20407;-78
2023/06/09 10:25:00;;;;;;;6.93;6.30;;;;;;;24.24;69.83;96112.00;7394958;19;20388;-78
2023/06/09 10:27:28;;;;;;;8.00;7.40;;;;;;;24.51;67.16;96126.06;7399063;19;20348;-78
2023/06/09 10:29:56;;;;;;;6.93;6.40;;;;;;;25.22;65.43;96118.88;7397069;19;20396;-79
2023/06/09 10:32:27;;;;;;;7.47;6.80;;;;;;;25.83;65.42;96126.13;7398694;19;20364;-78
2023/06/09 10:34:57;;;;;;;7.70;6.90;;;;;;;24.69;64.32;96087.75;7397040;19;20390;-78
2023/06/09 10:37:32;;;;;;;7.67;6.90;;;;;;;25.41;64.74;96089.41;7397089;19;20866;-78
2023/06/09 10:40:23;;;;;;;9.07;7.90;;;;;;;25.96;62.51;96099.06;7395833;19;20879;-78
2023/06/09 10:43:06;;;;;;;7.13;6.63;;;;;;;25.37;65.30;96086.00;7396293;19;20402;-77
2023/06/09 10:46:06;;;;;;;7.57;6.97;;;;;;;25.02;65.55;96083.09;7398114;19;20389;-78
2023/06/09 10:48:50;;;;;;;10.67;7.20;;;;;;;25.77;64.76;96078.31;7394868;19;20381;-78
2023/06/09 10:51:26;;;;;;;8.87;8.07;;;;;;;25.92;63.21;96099.16;7397705;19;20369;-78
2023/06/09 10:54:17;;;;;;;9.03;8.13;;;;;;;26.06;63.27;96102.66;7398374;19;20418;-78
2023/06/09 10:56:53;;;;;;;13.07;6.93;;;;;;;25.58;64.63;96082.72;7398663;19;20374;-78
2023/06/09 10:59:23;;;;;;;8.23;7.63;;;;;;;24.87;61.38;96096.19;7396843;19;20359;-78
2023/06/09 11:02:02;;;;;;;7.20;6.53;;;;;;;24.38;65.12;96095.47;7396386;19;20357;-77
2023/06/09 11:04:41;;;;;;;6.40;5.90;;;;;;;23.98;62.31;96087.47;7395569;19;20465;-77
2023/06/09 11:07:11;;;;;;;6.00;5.60;;;;;;;24.16;60.71;96081.66;7393891;19;20840;-77
2023/06/09 11:09:40;;;;;;;6.77;6.30;;;;;;;24.22;61.86;96071.88;7407363;19;20379;-79
2023/06/09 11:12:20;;;;;;;7.30;6.60;;;;;;;24.54;63.44;96078.47;7412355;19;20370;-78
2023/06/09 11:14:48;;;;;;;7.73;7.00;;;;;;;25.04;62.41;96075.31;7397790;19;20393;-78
2023/06/09 11:17:15;;;;;;;6.73;6.23;;;;;;;25.87;60.91;96078.00;7395817;19;20388;-78
2023/06/09 11:19:42;;;;;;;7.40;6.80;;;;;;;26.18;60.50;96064.69;7398195;19;20358;-77
2023/06/09 11:22:11;;;;;;;7.17;6.47;;;;;;;26.53;56.79;96075.63;7397326;19;20347;-78
2023/06/09 11:24:48;;;;;;;6.77;6.07;;;;;;;26.64;56.86;96086.13;7396098;19;20419;-77
2023/06/09 11:27:20;;;;;;;6.57;6.07;;;;;;;27.12;53.39;96070.59;7396945;19;20378;-78
2023/06/09 11:30:05;;;;;;;7.00;6.40;;;;;;;27.58;54.04;96068.94;7399380;19;20348;-78
2023/06/09 11:33:05;;;;;;;7.60;7.00;;;;;;;27.33;55.20;96069.84;7397025;19;20957;-78